Time;durP1;ratioP1;P1;durP2;ratioP2;P2;SDS_P1;SDS_P2;PMS_P1;PMS_P2;Temp;Humidity;BMP_temperature;BMP_pressure;BME280_temperature;BME280_humidity;BME280_pressure;Samples;Min_cycle;Max_cycle;Signal;HPM_P1;HPM_P2
2023/03/14 00:00:24;;;;;;;;;2.00;0.00;;;;;;;;5019450;28;9554;-91
2023/03/14 00:02:55;;;;;;;;;0.25;0.25;;;;;;;;5023150;28;9490;-91
2023/03/14 00:05:23;;;;;;;;;0.50;0.50;;;;;;;;5021936;28;9506;-90
2023/03/14 00:07:53;;;;;;;;;0.00;0.00;;;;;;;;5024018;28;9542;-91
2023/03/14 00:10:23;;;;;;;;;0.00;0.00;;;;;;;;5023452;28;9498;-90
2023/03/14 00:12:53;;;;;;;;;0.25;0.25;;;;;;;;5024984;28;9547;-91
2023/03/14 00:15:23;;;;;;;;;3.50;1.00;;;;;;;;5025250;28;9500;-90
2023/03/14 00:17:54;;;;;;;;;0.00;0.00;;;;;;;;5027545;28;9558;-91
2023/03/14 00:20:24;;;;;;;;;0.00;0.00;;;;;;;;5022472;28;9507;-91
2023/03/14 00:22:52;;;;;;;;;2.50;0.00;;;;;;;;5027322;28;9578;-90
2023/03/14 00:25:20;;;;;;;;;0.50;0.25;;;;;;;;5024731;28;9504;-90
2023/03/14 00:27:47;;;;;;;;;1.25;0.00;;;;;;;;5023274;28;9702;-90
2023/03/14 00:30:15;;;;;;;;;2.00;0.75;;;;;;;;5027945;28;9387;-90
2023/03/14 00:32:44;;;;;;;;;1.00;1.00;;;;;;;;5030649;28;9595;-91
2023/03/14 00:35:12;;;;;;;;;1.50;0.00;;;;;;;;5027930;28;10311;-91
2023/03/14 00:37:39;;;;;;;;;0.00;0.00;;;;;;;;5028416;28;9554;-90
2023/03/14 00:40:09;;;;;;;;;0.00;0.00;;;;;;;;5025098;28;9490;-91
2023/03/14 00:42:36;;;;;;;;;0.25;0.00;;;;;;;;5025574;28;9637;-90
2023/03/14 00:45:05;;;;;;;;;1.50;0.00;;;;;;;;5031454;28;9633;-91
2023/03/14 00:47:32;;;;;;;;;0.00;0.00;;;;;;;;5031011;28;9502;-90
2023/03/14 00:50:02;;;;;;;;;0.50;0.00;;;;;;;;5023398;28;9657;-89
2023/03/14 00:52:29;;;;;;;;;0.75;0.00;;;;;;;;5028353;28;9641;-89
2023/03/14 00:54:58;;;;;;;;;2.00;0.00;;;;;;;;5034097;28;9483;-90
2023/03/14 00:57:25;;;;;;;;;0.00;0.00;;;;;;;;5035320;28;9459;-88
2023/03/14 00:59:53;;;;;;;;;0.00;0.00;;;;;;;;5028762;28;9474;-89
2023/03/14 01:02:23;;;;;;;;;2.00;0.00;;;;;;;;5029691;28;9527;-89
2023/03/14 01:04:51;;;;;;;;;0.00;0.00;;;;;;;;5031840;28;9490;-89
2023/03/14 01:07:21;;;;;;;;;4.50;0.50;;;;;;;;5030989;28;9568;-90
2023/03/14 01:09:52;;;;;;;;;0.00;0.00;;;;;;;;5027741;28;9739;-90
2023/03/14 01:12:31;;;;;;;;;0.00;0.00;;;;;;;;5027383;28;9572;-88
2023/03/14 01:14:59;;;;;;;;;0.00;0.00;;;;;;;;5022952;28;9474;-88
2023/03/14 01:17:27;;;;;;;;;0.00;0.00;;;;;;;;5006493;28;9536;-89
2023/03/14 01:19:54;;;;;;;;;0.00;0.00;;;;;;;;5022765;28;9575;-89
2023/03/14 01:22:25;;;;;;;;;0.25;0.00;;;;;;;;5021792;28;9659;-89
2023/03/14 01:24:53;;;;;;;;;0.00;0.00;;;;;;;;5020786;28;9652;-90
2023/03/14 01:27:22;;;;;;;;;0.00;0.00;;;;;;;;5031046;28;9584;-90
2023/03/14 01:29:52;;;;;;;;;0.00;0.00;;;;;;;;5035747;28;9414;-89
2023/03/14 01:32:21;;;;;;;;;0.00;0.00;;;;;;;;5042667;28;9698;-89
2023/03/14 01:34:49;;;;;;;;;0.25;0.00;;;;;;;;5022916;28;9518;-89
2023/03/14 01:37:16;;;;;;;;;0.75;0.00;;;;;;;;5031698;28;9539;-91
2023/03/14 01:39:51;;;;;;;;;0.50;0.50;;;;;;;;5040243;28;9690;-91
2023/03/14 01:42:21;;;;;;;;;0.00;0.00;;;;;;;;5035770;28;9568;-91
2023/03/14 01:44:56;;;;;;;;;0.00;0.00;;;;;;;;5028881;28;9725;-87
2023/03/14 01:47:27;;;;;;;;;0.00;0.00;;;;;;;;5028157;28;9661;-88
2023/03/14 01:49:59;;;;;;;;;0.00;0.00;;;;;;;;5022831;28;9686;-89
2023/03/14 01:52:33;;;;;;;;;0.00;0.00;;;;;;;;5029312;28;9620;-88
2023/03/14 01:55:05;;;;;;;;;1.00;0.00;;;;;;;;5040575;28;9527;-87
2023/03/14 01:57:36;;;;;;;;;1.00;0.00;;;;;;;;5034772;28;9824;-88
2023/03/14 02:00:11;;;;;;;;;0.00;0.00;;;;;;;;5027297;28;9631;-88
2023/03/14 02:02:39;;;;;;;;;0.00;0.00;;;;;;;;5024898;28;9787;-89
2023/03/14 02:05:08;;;;;;;;;1.00;0.00;;;;;;;;5024874;28;9690;-89
2023/03/14 02:07:39;;;;;;;;;1.00;0.00;;;;;;;;5022880;28;9800;-89
2023/03/14 02:10:10;;;;;;;;;0.25;0.00;;;;;;;;5020327;28;9864;-90
2023/03/14 02:12:38;;;;;;;;;3.00;0.00;;;;;;;;5021069;28;9950;-89
2023/03/14 02:15:07;;;;;;;;;0.00;0.00;;;;;;;;5020851;28;9779;-89
2023/03/14 02:17:36;;;;;;;;;0.00;0.00;;;;;;;;5001903;28;9759;-90
2023/03/14 02:20:15;;;;;;;;;0.50;0.00;;;;;;;;5021221;28;9775;-90
2023/03/14 02:22:45;;;;;;;;;0.00;0.00;;;;;;;;5020028;28;9807;-90
2023/03/14 02:25:21;;;;;;;;;0.00;0.00;;;;;;;;5021208;28;9763;-90
2023/03/14 02:27:52;;;;;;;;;0.00;0.00;;;;;;;;5021037;28;9841;-90
2023/03/14 02:30:24;;;;;;;;;0.00;0.00;;;;;;;;5020040;28;9750;-90
2023/03/14 02:32:58;;;;;;;;;0.00;0.00;;;;;;;;5023415;28;9716;-90
2023/03/14 02:35:28;;;;;;;;;0.00;0.00;;;;;;;;5038298;28;9736;-90
2023/03/14 02:37:59;;;;;;;;;0.75;0.00;;;;;;;;5032768;28;9720;-90
2023/03/14 02:40:26;;;;;;;;;0.00;0.00;;;;;;;;5025309;28;9717;-90
2023/03/14 02:42:55;;;;;;;;;0.50;0.00;;;;;;;;5023001;28;9619;-89
2023/03/14 02:45:45;;;;;;;;;0.00;0.00;;;;;;;;5020833;28;9727;-89
2023/03/14 02:48:17;;;;;;;;;0.00;0.00;;;;;;;;5018369;28;10058;-90
2023/03/14 02:50:46;;;;;;;;;1.00;0.00;;;;;;;;5028080;28;9882;-91
2023/03/14 02:53:17;;;;;;;;;0.00;0.00;;;;;;;;5041748;28;9705;-91
2023/03/14 02:59:06;;;;;;;;;0.00;0.00;;;;;;;;5031588;28;9674;-92
2023/03/14 03:01:35;;;;;;;;;0.00;0.00;;;;;;;;5023607;28;9631;-91
2023/03/14 03:04:03;;;;;;;;;0.00;0.00;;;;;;;;5023211;28;9590;-92
2023/03/14 03:06:39;;;;;;;;;0.00;0.00;;;;;;;;5023746;28;9586;-91
2023/03/14 03:09:06;;;;;;;;;0.00;0.00;;;;;;;;5028775;28;9743;-91
2023/03/14 03:11:36;;;;;;;;;0.00;0.00;;;;;;;;5035430;28;9654;-92
2023/03/14 03:14:05;;;;;;;;;0.00;0.00;;;;;;;;5037696;28;9725;-92
2023/03/14 03:16:33;;;;;;;;;1.00;0.00;;;;;;;;5029553;28;9771;-91
2023/03/14 03:19:00;;;;;;;;;0.00;0.00;;;;;;;;5020344;28;9791;-91
2023/03/14 03:21:28;;;;;;;;;0.75;0.00;;;;;;;;5023608;28;9701;-92
2023/03/14 03:23:55;;;;;;;;;0.00;0.00;;;;;;;;5022824;28;9881;-91
2023/03/14 03:26:23;;;;;;;;;0.00;0.00;;;;;;;;5020131;28;9751;-91
2023/03/14 03:28:52;;;;;;;;;0.00;0.00;;;;;;;;5022371;28;9728;-92
2023/03/14 03:31:22;;;;;;;;;0.00;0.00;;;;;;;;5026540;28;9769;-91
2023/03/14 03:33:49;;;;;;;;;0.00;0.00;;;;;;;;5028919;28;9904;-91
2023/03/14 03:36:25;;;;;;;;;0.00;0.00;;;;;;;;5043103;28;9689;-88
2023/03/14 03:38:53;;;;;;;;;0.50;0.00;;;;;;;;5090144;22;9754;-72
2023/03/14 03:41:20;;;;;;;;;0.00;0.00;;;;;;;;5024909;28;9648;-72
2023/03/14 03:43:47;;;;;;;;;0.00;0.00;;;;;;;;5071617;22;9884;-73
2023/03/14 03:46:15;;;;;;;;;0.00;0.00;;;;;;;;5029432;28;9748;-72
2023/03/14 03:48:43;;;;;;;;;0.25;0.00;;;;;;;;5025258;28;9865;-72
2023/03/14 03:51:14;;;;;;;;;0.00;0.00;;;;;;;;5025713;28;9844;-73
2023/03/14 03:53:41;;;;;;;;;0.00;0.00;;;;;;;;5066539;22;9849;-72
2023/03/14 03:56:10;;;;;;;;;0.00;0.00;;;;;;;;5050423;23;9775;-72
2023/03/14 03:58:38;;;;;;;;;0.00;0.00;;;;;;;;5030880;28;9852;-72
2023/03/14 04:01:06;;;;;;;;;0.00;0.00;;;;;;;;5041619;22;9752;-72
2023/03/14 04:03:34;;;;;;;;;0.00;0.00;;;;;;;;5027779;23;10458;-73
2023/03/14 04:06:04;;;;;;;;;0.00;0.00;;;;;;;;5024902;28;9842;-72
2023/03/14 04:08:32;;;;;;;;;0.00;0.00;;;;;;;;5097610;23;9808;-72
2023/03/14 04:11:00;;;;;;;;;0.00;0.00;;;;;;;;5094960;23;9881;-72
2023/03/14 04:13:28;;;;;;;;;0.00;0.00;;;;;;;;5047499;22;9843;-72
2023/03/14 04:15:56;;;;;;;;;1.00;0.00;;;;;;;;5030795;23;9688;-72
2023/03/14 04:18:25;;;;;;;;;0.00;0.00;;;;;;;;5025631;28;9839;-72
2023/03/14 04:20:53;;;;;;;;;0.00;0.00;;;;;;;;5026028;28;9710;-72
2023/03/14 04:23:23;;;;;;;;;0.00;0.00;;;;;;;;5028594;28;9875;-71
2023/03/14 04:25:51;;;;;;;;;0.00;0.00;;;;;;;;5026424;23;9913;-72
2023/03/14 04:28:19;;;;;;;;;0.00;0.00;;;;;;;;5472052;22;9880;-71
2023/03/14 04:30:46;;;;;;;;;0.00;0.00;;;;;;;;5006745;28;9877;-72
2023/03/14 04:33:16;;;;;;;;;0.00;0.00;;;;;;;;5004554;28;9834;-71
2023/03/14 04:35:44;;;;;;;;;0.00;0.00;;;;;;;;5189616;22;11256;-72
2023/03/14 04:38:12;;;;;;;;;0.00;0.00;;;;;;;;5063440;28;10135;-72
2023/03/14 04:40:42;;;;;;;;;0.00;0.00;;;;;;;;5063844;28;10071;-72
2023/03/14 04:43:10;;;;;;;;;0.00;0.00;;;;;;;;5063266;28;10016;-72
2023/03/14 04:45:38;;;;;;;;;0.00;0.00;;;;;;;;5064234;28;10671;-72
2023/03/14 04:48:06;;;;;;;;;0.00;0.00;;;;;;;;5095007;22;10128;-73
2023/03/14 04:53:03;;;;;;;;;0.00;0.00;;;;;;;;5027405;23;9974;-88
2023/03/14 04:55:32;;;;;;;;;0.00;0.00;;;;;;;;5004279;28;10098;-89
2023/03/14 04:58:01;;;;;;;;;0.00;0.00;;;;;;;;5022539;28;10001;-90
2023/03/14 05:00:29;;;;;;;;;0.00;0.00;;;;;;;;5006097;28;10144;-89
2023/03/14 05:02:56;;;;;;;;;0.00;0.00;;;;;;;;5016501;28;10115;-89
2023/03/14 05:05:24;;;;;;;;;0.00;0.00;;;;;;;;5007752;28;10021;-88
2023/03/14 05:07:53;;;;;;;;;0.00;0.00;;;;;;;;5019217;28;10813;-88
2023/03/14 05:10:21;;;;;;;;;0.00;0.00;;;;;;;;5006934;28;9926;-88
2023/03/14 05:12:48;;;;;;;;;0.00;0.00;;;;;;;;5000869;28;9989;-88
2023/03/14 05:15:17;;;;;;;;;0.00;0.00;;;;;;;;5019133;28;9998;-84
2023/03/14 05:17:45;;;;;;;;;0.00;0.00;;;;;;;;5020603;28;9977;-84
2023/03/14 05:20:13;;;;;;;;;0.00;0.00;;;;;;;;5020374;28;9902;-87
2023/03/14 05:22:41;;;;;;;;;0.75;0.75;;;;;;;;5016199;28;10419;-87
2023/03/14 05:25:10;;;;;;;;;3.50;3.50;;;;;;;;5004531;28;10184;-87
2023/03/14 05:27:37;;;;;;;;;0.50;0.50;;;;;;;;5019378;28;10376;-89
2023/03/14 05:30:08;;;;;;;;;0.00;0.00;;;;;;;;5014890;28;10649;-88
2023/03/14 05:32:37;;;;;;;;;2.00;0.00;;;;;;;;5008090;28;10995;-84
2023/03/14 05:35:05;;;;;;;;;0.00;0.00;;;;;;;;5015753;28;10508;-85
2023/03/14 05:37:34;;;;;;;;;0.00;0.00;;;;;;;;5017976;28;10527;-84
2023/03/14 05:40:07;;;;;;;;;0.00;0.00;;;;;;;;5003520;28;10444;-84
2023/03/14 05:42:35;;;;;;;;;0.00;0.00;;;;;;;;5017799;28;10587;-83
2023/03/14 05:45:05;;;;;;;;;0.00;0.00;;;;;;;;5023174;28;10616;-81
2023/03/14 05:47:33;;;;;;;;;0.75;0.00;;;;;;;;5000529;28;10671;-79
2023/03/14 05:50:08;;;;;;;;;0.00;0.00;;;;;;;;4989561;28;10805;-81
2023/03/14 05:52:37;;;;;;;;;0.00;0.00;;;;;;;;5018451;28;11675;-82
2023/03/14 05:55:06;;;;;;;;;0.00;0.00;;;;;;;;5016121;28;10723;-82
2023/03/14 05:57:34;;;;;;;;;0.00;0.00;;;;;;;;5012276;28;10792;-85
2023/03/14 06:00:02;;;;;;;;;0.00;0.00;;;;;;;;5003497;28;10818;-85
2023/03/14 06:02:30;;;;;;;;;0.00;0.00;;;;;;;;5020855;28;10982;-86
2023/03/14 06:05:00;;;;;;;;;0.00;0.00;;;;;;;;5016532;28;10860;-85
2023/03/14 06:07:29;;;;;;;;;0.00;0.00;;;;;;;;5014164;28;10937;-86
2023/03/14 06:09:59;;;;;;;;;0.75;0.00;;;;;;;;5017531;28;11027;-86
2023/03/14 06:12:28;;;;;;;;;0.00;0.00;;;;;;;;5012000;28;11104;-86
2023/03/14 06:15:00;;;;;;;;;0.00;0.00;;;;;;;;5006405;28;11262;-87
2023/03/14 06:17:27;;;;;;;;;0.00;0.00;;;;;;;;5001886;28;11125;-87
2023/03/14 06:20:04;;;;;;;;;0.00;0.00;;;;;;;;5004390;28;11117;-82
2023/03/14 06:22:36;;;;;;;;;1.25;0.00;;;;;;;;5004356;28;11378;-81
2023/03/14 06:25:04;;;;;;;;;0.00;0.00;;;;;;;;5006460;28;11421;-82
2023/03/14 06:27:32;;;;;;;;;1.00;0.00;;;;;;;;5001770;28;11486;-82
2023/03/14 06:30:00;;;;;;;;;1.00;0.00;;;;;;;;5020000;28;11239;-83
2023/03/14 06:32:28;;;;;;;;;0.00;0.00;;;;;;;;5000407;28;11208;-85
2023/03/14 06:35:00;;;;;;;;;0.00;0.00;;;;;;;;5022199;28;11502;-84
2023/03/14 06:37:29;;;;;;;;;0.00;0.00;;;;;;;;5007427;28;11124;-85
2023/03/14 06:40:00;;;;;;;;;3.00;0.00;;;;;;;;5020400;28;11154;-85
2023/03/14 06:42:31;;;;;;;;;0.00;0.00;;;;;;;;5020262;28;11212;-84
2023/03/14 06:45:04;;;;;;;;;0.00;0.00;;;;;;;;5004995;28;11436;-83
2023/03/14 06:47:32;;;;;;;;;0.00;0.00;;;;;;;;5014855;28;11216;-81
2023/03/14 06:49:59;;;;;;;;;0.00;0.00;;;;;;;;5021632;28;11408;-82
2023/03/14 06:52:27;;;;;;;;;0.00;0.00;;;;;;;;5015607;28;11540;-84
2023/03/14 06:54:54;;;;;;;;;0.00;0.00;;;;;;;;5018766;28;11404;-83
2023/03/14 06:57:24;;;;;;;;;0.00;0.00;;;;;;;;5020365;28;11396;-85
2023/03/14 06:59:52;;;;;;;;;0.75;0.00;;;;;;;;5012981;28;11433;-84
2023/03/14 07:02:21;;;;;;;;;0.00;0.00;;;;;;;;5018209;28;11501;-84
2023/03/14 07:04:56;;;;;;;;;0.00;0.00;;;;;;;;5011716;28;11458;-84
2023/03/14 07:07:23;;;;;;;;;0.50;0.50;;;;;;;;5019841;28;11376;-85
2023/03/14 07:09:50;;;;;;;;;2.50;0.00;;;;;;;;5013697;28;11380;-88
2023/03/14 07:12:18;;;;;;;;;1.00;0.50;;;;;;;;5015185;28;12133;-81
2023/03/14 07:14:48;;;;;;;;;1.25;0.75;;;;;;;;5004445;28;11423;-82
2023/03/14 07:17:15;;;;;;;;;0.00;0.00;;;;;;;;5001278;28;11796;-83
2023/03/14 07:19:43;;;;;;;;;0.00;0.00;;;;;;;;5013309;28;11484;-83
2023/03/14 07:22:12;;;;;;;;;0.00;0.00;;;;;;;;5005713;28;11428;-84
2023/03/14 07:24:39;;;;;;;;;0.00;0.00;;;;;;;;5008628;28;11567;-82
2023/03/14 07:27:07;;;;;;;;;1.50;0.00;;;;;;;;5016626;28;11388;-81
2023/03/14 07:29:34;;;;;;;;;0.50;0.50;;;;;;;;5004487;28;11369;-80
2023/03/14 07:32:03;;;;;;;;;2.50;0.00;;;;;;;;5017822;28;11398;-83
2023/03/14 07:34:31;;;;;;;;;0.00;0.00;;;;;;;;5021039;28;11403;-87
2023/03/14 07:36:58;;;;;;;;;0.00;0.00;;;;;;;;5013036;28;11416;-86
2023/03/14 07:39:29;;;;;;;;;0.00;0.00;;;;;;;;4985281;28;11405;-86
2023/03/14 07:41:57;;;;;;;;;1.00;1.00;;;;;;;;5004610;28;11423;-88
2023/03/14 07:44:25;;;;;;;;;0.00;0.00;;;;;;;;5016819;28;11425;-85
2023/03/14 07:46:52;;;;;;;;;1.75;0.00;;;;;;;;5022068;28;11544;-87
2023/03/14 07:49:21;;;;;;;;;1.75;0.50;;;;;;;;5021953;28;11577;-84
2023/03/14 07:51:50;;;;;;;;;1.00;1.00;;;;;;;;5014415;28;11447;-86
2023/03/14 07:54:19;;;;;;;;;0.00;0.00;;;;;;;;4984828;28;11493;-85
2023/03/14 07:56:47;;;;;;;;;1.00;1.00;;;;;;;;4998944;28;11458;-85
2023/03/14 07:59:14;;;;;;;;;0.00;0.00;;;;;;;;5014249;28;11546;-83
2023/03/14 08:01:42;;;;;;;;;0.00;0.00;;;;;;;;5000389;28;11450;-84
2023/03/14 08:04:11;;;;;;;;;2.00;1.00;;;;;;;;5018171;28;11479;-82
2023/03/14 08:06:40;;;;;;;;;1.00;1.00;;;;;;;;5019213;28;11398;-86
2023/03/14 08:09:08;;;;;;;;;0.00;0.00;;;;;;;;5017658;28;11403;-83
2023/03/14 08:11:36;;;;;;;;;0.00;0.00;;;;;;;;5021443;28;11507;-80
2023/03/14 08:14:03;;;;;;;;;1.00;1.00;;;;;;;;5018109;28;11059;-84
2023/03/14 08:16:30;;;;;;;;;1.25;0.75;;;;;;;;5003911;28;11144;-83
2023/03/14 08:18:58;;;;;;;;;3.75;0.00;;;;;;;;5022876;28;11120;-81
2023/03/14 08:21:27;;;;;;;;;0.75;0.75;;;;;;;;5024128;28;11078;-84
2023/03/14 08:23:56;;;;;;;;;1.25;0.75;;;;;;;;5005523;28;11054;-83
2023/03/14 08:26:26;;;;;;;;;0.00;0.00;;;;;;;;5023096;28;11555;-81
2023/03/14 08:28:54;;;;;;;;;0.25;0.25;;;;;;;;5007212;28;10986;-81
2023/03/14 08:31:21;;;;;;;;;1.00;1.00;;;;;;;;5016760;28;11893;-84
2023/03/14 08:33:51;;;;;;;;;2.50;1.00;;;;;;;;5003330;28;11044;-82
2023/03/14 08:36:19;;;;;;;;;0.00;0.00;;;;;;;;5021425;28;11103;-82
2023/03/14 08:38:50;;;;;;;;;3.00;0.75;;;;;;;;5003569;28;11380;-81
2023/03/14 08:41:19;;;;;;;;;0.75;0.50;;;;;;;;5016234;28;10914;-78
2023/03/14 08:43:47;;;;;;;;;2.75;1.00;;;;;;;;5016784;28;11111;-77
2023/03/14 08:46:14;;;;;;;;;5.00;3.75;;;;;;;;5004647;28;11040;-77
2023/03/14 08:48:43;;;;;;;;;1.75;1.75;;;;;;;;5022683;28;11045;-77
2023/03/14 08:51:12;;;;;;;;;2.00;2.00;;;;;;;;5001145;28;10923;-77
2023/03/14 08:53:40;;;;;;;;;0.00;0.00;;;;;;;;5017484;28;10750;-77
2023/03/14 08:56:10;;;;;;;;;3.75;1.00;;;;;;;;5021089;28;10620;-80
2023/03/14 08:58:41;;;;;;;;;0.00;0.00;;;;;;;;5009750;28;10725;-84
2023/03/14 09:01:10;;;;;;;;;1.75;0.00;;;;;;;;4999338;28;10490;-79
2023/03/14 09:03:41;;;;;;;;;1.75;1.00;;;;;;;;5020310;28;10527;-80
2023/03/14 09:06:10;;;;;;;;;1.25;1.25;;;;;;;;5020473;28;10479;-83
2023/03/14 09:08:38;;;;;;;;;0.50;0.50;;;;;;;;5011537;28;10511;-84
2023/03/14 09:11:08;;;;;;;;;0.00;0.00;;;;;;;;5016829;28;10457;-81
2023/03/14 09:13:43;;;;;;;;;4.00;0.75;;;;;;;;5013879;28;10553;-76
2023/03/14 09:16:11;;;;;;;;;1.75;0.00;;;;;;;;5016782;28;11471;-79
2023/03/14 09:18:38;;;;;;;;;0.75;0.75;;;;;;;;5001122;28;10617;-79
2023/03/14 09:21:07;;;;;;;;;1.00;0.00;;;;;;;;5016544;28;10457;-79
2023/03/14 09:23:35;;;;;;;;;2.00;0.00;;;;;;;;5018133;28;10526;-78
2023/03/14 09:26:03;;;;;;;;;2.00;1.00;;;;;;;;5021649;28;10386;-79
2023/03/14 09:28:31;;;;;;;;;0.00;0.00;;;;;;;;5021458;28;10543;-82
2023/03/14 09:31:06;;;;;;;;;0.00;0.00;;;;;;;;5017038;28;10309;-79
2023/03/14 09:33:33;;;;;;;;;3.25;1.00;;;;;;;;5015515;28;10279;-76
2023/03/14 09:36:01;;;;;;;;;2.00;0.50;;;;;;;;5020890;28;10493;-82
2023/03/14 09:38:29;;;;;;;;;2.50;1.00;;;;;;;;5022491;28;11217;-78
2023/03/14 09:41:00;;;;;;;;;2.50;1.00;;;;;;;;5015700;28;10544;-76
2023/03/14 09:43:29;;;;;;;;;0.25;0.25;;;;;;;;5015731;28;10413;-78
2023/03/14 09:46:01;;;;;;;;;0.00;0.00;;;;;;;;5005678;28;10573;-76
2023/03/14 09:48:33;;;;;;;;;0.00;0.00;;;;;;;;5018353;28;10530;-78
2023/03/14 09:51:04;;;;;;;;;0.00;0.00;;;;;;;;5001641;28;10449;-78
2023/03/14 09:53:39;;;;;;;;;1.50;0.00;;;;;;;;5016568;28;10534;-77
2023/03/14 09:56:12;;;;;;;;;0.00;0.00;;;;;;;;5000614;28;11057;-85
2023/03/14 09:58:42;;;;;;;;;1.00;0.00;;;;;;;;5025676;28;10447;-81
2023/03/14 10:01:17;;;;;;;;;0.00;0.00;;;;;;;;5017194;28;10305;-78
2023/03/14 10:03:46;;;;;;;;;0.50;0.50;;;;;;;;5017364;28;10323;-85
2023/03/14 10:06:15;;;;;;;;;0.00;0.00;;;;;;;;5003244;28;10374;-78
2023/03/14 10:08:42;;;;;;;;;0.00;0.00;;;;;;;;5016258;28;10225;-77
2023/03/14 10:11:16;;;;;;;;;1.75;1.75;;;;;;;;5015219;28;10032;-77
2023/03/14 10:13:54;;;;;;;;;3.50;0.50;;;;;;;;5018024;28;10073;-78
2023/03/14 10:16:30;;;;;;;;;0.00;0.00;;;;;;;;5015682;28;9779;-76
2023/03/14 10:19:04;;;;;;;;;4.00;1.00;;;;;;;;5018101;28;9542;-76
2023/03/14 10:21:39;;;;;;;;;1.00;1.00;;;;;;;;5010101;28;9572;-78
2023/03/14 10:24:11;;;;;;;;;0.00;0.00;;;;;;;;5018777;28;9603;-76
2023/03/14 10:26:39;;;;;;;;;0.00;0.00;;;;;;;;5018596;28;9474;-73
2023/03/14 10:29:25;;;;;;;;;0.00;0.00;;;;;;;;5003818;28;9532;-77
2023/03/14 10:31:56;;;;;;;;;0.50;0.00;;;;;;;;5023265;28;9746;-80
2023/03/14 10:34:28;;;;;;;;;0.00;0.00;;;;;;;;5018472;28;10154;-78
2023/03/14 10:36:57;;;;;;;;;0.00;0.00;;;;;;;;5016785;28;10404;-82
2023/03/14 10:39:38;;;;;;;;;2.00;0.00;;;;;;;;5008789;28;10474;-82
2023/03/14 10:42:13;;;;;;;;;0.00;0.00;;;;;;;;5013683;28;11425;-83
2023/03/14 10:44:45;;;;;;;;;2.00;1.00;;;;;;;;5017136;28;10699;-82
2023/03/14 10:47:20;;;;;;;;;0.75;0.75;;;;;;;;5009544;28;10644;-82
2023/03/14 10:49:47;;;;;;;;;0.00;0.00;;;;;;;;5015182;28;10632;-81
2023/03/14 10:52:22;;;;;;;;;0.00;0.00;;;;;;;;5019684;28;10443;-80
2023/03/14 10:54:55;;;;;;;;;0.00;0.00;;;;;;;;5000118;28;10652;-82
2023/03/14 10:57:25;;;;;;;;;0.00;0.00;;;;;;;;5002731;28;10472;-84
2023/03/14 11:02:46;;;;;;;;;0.00;0.00;;;;;;;;5016501;28;10395;-77
2023/03/14 11:05:29;;;;;;;;;0.00;0.00;;;;;;;;5021618;28;10247;-79
2023/03/14 11:08:00;;;;;;;;;0.25;0.00;;;;;;;;5017444;28;10003;-76
2023/03/14 11:10:32;;;;;;;;;0.00;0.00;;;;;;;;5006101;28;9917;-78
2023/03/14 11:13:09;;;;;;;;;0.00;0.00;;;;;;;;5012463;28;9877;-78
2023/03/14 11:15:39;;;;;;;;;2.00;0.00;;;;;;;;5009662;28;9677;-78
2023/03/14 11:18:47;;;;;;;;;1.00;1.00;;;;;;;;5019039;28;9605;-80
2023/03/14 11:21:21;;;;;;;;;1.00;0.00;;;;;;;;5012327;28;9554;-77
2023/03/14 11:23:58;;;;;;;;;0.00;0.00;;;;;;;;5013821;28;9411;-81
2023/03/14 11:26:33;;;;;;;;;0.00;0.00;;;;;;;;4997046;28;9439;-81
2023/03/14 11:29:10;;;;;;;;;0.00;0.00;;;;;;;;5025445;28;9734;-81
2023/03/14 11:31:41;;;;;;;;;0.00;0.00;;;;;;;;5027978;28;10778;-80
2023/03/14 11:34:17;;;;;;;;;0.00;0.00;;;;;;;;5023676;28;10140;-81
2023/03/14 11:36:54;;;;;;;;;0.75;0.75;;;;;;;;5034460;28;10092;-81
2023/03/14 11:39:30;;;;;;;;;0.00;0.00;;;;;;;;5031697;28;10083;-80
2023/03/14 11:42:05;;;;;;;;;0.00;0.00;;;;;;;;5028573;28;10123;-81
2023/03/14 11:44:39;;;;;;;;;0.00;0.00;;;;;;;;5026702;28;9919;-81
2023/03/14 11:50:19;;;;;;;;;0.00;0.00;;;;;;;;5012736;28;9909;-80
2023/03/14 11:52:56;;;;;;;;;1.00;0.00;;;;;;;;5029866;28;10029;-79
2023/03/14 11:55:29;;;;;;;;;0.00;0.00;;;;;;;;5021798;28;10074;-81
2023/03/14 11:58:11;;;;;;;;;2.00;0.00;;;;;;;;5004756;28;10370;-79
2023/03/14 12:00:40;;;;;;;;;2.00;0.00;;;;;;;;5023306;28;10112;-79
2023/03/14 12:03:19;;;;;;;;;0.00;0.00;;;;;;;;5022987;28;9766;-79
2023/03/14 12:06:19;;;;;;;;;0.00;0.00;;;;;;;;5022218;28;9779;-80
2023/03/14 12:08:55;;;;;;;;;0.00;0.00;;;;;;;;5011439;28;9778;-84
2023/03/14 12:11:35;;;;;;;;;0.00;0.00;;;;;;;;4998654;28;9851;-85
2023/03/14 12:14:11;;;;;;;;;0.00;0.00;;;;;;;;4997546;28;10179;-82
2023/03/14 12:16:40;;;;;;;;;0.00;0.00;;;;;;;;4981302;28;10406;-84
2023/03/14 12:19:33;;;;;;;;;1.00;0.00;;;;;;;;4980401;28;11839;-84
2023/03/14 12:22:14;;;;;;;;;1.00;0.00;;;;;;;;4980449;28;10837;-85
2023/03/14 12:24:48;;;;;;;;;0.00;0.00;;;;;;;;4998619;28;11089;-81
2023/03/14 12:27:40;;;;;;;;;0.00;0.00;;;;;;;;5002757;28;11124;-83
2023/03/14 12:30:29;;;;;;;;;0.00;0.00;;;;;;;;5001542;28;11131;-83
2023/03/14 12:33:30;;;;;;;;;0.00;0.00;;;;;;;;5000554;28;12367;-83
2023/03/14 12:36:04;;;;;;;;;0.00;0.00;;;;;;;;4920030;29;11197;-85
2023/03/14 12:38:45;;;;;;;;;1.00;0.00;;;;;;;;4919882;29;11114;-80
2023/03/14 12:41:18;;;;;;;;;0.75;0.00;;;;;;;;4937197;28;10838;-83
2023/03/14 12:43:46;;;;;;;;;0.00;0.00;;;;;;;;5002361;28;10928;-84
2023/03/14 12:46:22;;;;;;;;;0.00;0.00;;;;;;;;5006238;28;10837;-84
2023/03/14 12:48:51;;;;;;;;;0.00;0.00;;;;;;;;4999095;28;10806;-83
2023/03/14 12:51:21;;;;;;;;;0.00;0.00;;;;;;;;5015426;28;10709;-83
2023/03/14 12:54:23;;;;;;;;;0.00;0.00;;;;;;;;5016401;28;10575;-85
2023/03/14 12:57:25;;;;;;;;;0.00;0.00;;;;;;;;5013396;28;10606;-83
2023/03/14 12:59:57;;;;;;;;;0.00;0.00;;;;;;;;5023716;28;10531;-81
2023/03/14 13:02:27;;;;;;;;;0.00;0.00;;;;;;;;5026713;28;10622;-80
2023/03/14 13:05:04;;;;;;;;;0.00;0.00;;;;;;;;5023330;28;11299;-82
2023/03/14 13:07:35;;;;;;;;;0.00;0.00;;;;;;;;5021146;28;10652;-81
2023/03/14 13:10:06;;;;;;;;;0.00;0.00;;;;;;;;5019970;28;10779;-81
2023/03/14 13:12:41;;;;;;;;;0.00;0.00;;;;;;;;5013241;28;10509;-81
2023/03/14 13:15:26;;;;;;;;;1.00;1.00;;;;;;;;5008145;28;10822;-82
2023/03/14 13:18:11;;;;;;;;;0.00;0.00;;;;;;;;5015909;28;10576;-84
2023/03/14 13:20:40;;;;;;;;;0.00;0.00;;;;;;;;5016829;28;10352;-82
2023/03/14 13:23:22;;;;;;;;;0.00;0.00;;;;;;;;5011048;28;10154;-83
2023/03/14 13:25:49;;;;;;;;;0.00;0.00;;;;;;;;5021819;28;9920;-85
2023/03/14 13:28:17;;;;;;;;;0.00;0.00;;;;;;;;5006392;28;9715;-81
2023/03/14 13:30:52;;;;;;;;;1.00;0.00;;;;;;;;5005065;28;9508;-85
2023/03/14 13:33:21;;;;;;;;;0.00;0.00;;;;;;;;5022537;28;9376;-81
2023/03/14 13:35:58;;;;;;;;;0.00;0.00;;;;;;;;5014937;28;9405;-82
2023/03/14 13:38:28;;;;;;;;;1.00;0.00;;;;;;;;4998929;28;9384;-81
2023/03/14 13:41:00;;;;;;;;;0.00;0.00;;;;;;;;5012879;28;9252;-82
2023/03/14 13:43:30;;;;;;;;;0.00;0.00;;;;;;;;5017213;28;9259;-82
2023/03/14 13:46:05;;;;;;;;;0.00;0.00;;;;;;;;5013281;28;9161;-84
2023/03/14 13:48:34;;;;;;;;;0.00;0.00;;;;;;;;5014404;28;9356;-84
2023/03/14 13:51:04;;;;;;;;;0.00;0.00;;;;;;;;4999897;28;9256;-87
2023/03/14 13:53:32;;;;;;;;;0.00;0.00;;;;;;;;5015860;28;9469;-81
2023/03/14 13:56:03;;;;;;;;;1.75;0.00;;;;;;;;5011953;28;9976;-83
2023/03/14 13:58:32;;;;;;;;;0.00;0.00;;;;;;;;5018123;28;10327;-78
2023/03/14 14:01:16;;;;;;;;;0.00;0.00;;;;;;;;5018192;28;10603;-77
2023/03/14 14:03:45;;;;;;;;;0.00;0.00;;;;;;;;4983227;28;10634;-76
2023/03/14 14:06:30;;;;;;;;;0.50;0.00;;;;;;;;5015120;28;10759;-75
2023/03/14 14:09:00;;;;;;;;;1.50;0.00;;;;;;;;5019251;28;10853;-82
2023/03/14 14:11:38;;;;;;;;;0.00;0.00;;;;;;;;5017193;28;10998;-81
2023/03/14 14:14:15;;;;;;;;;0.00;0.00;;;;;;;;5021365;28;10870;-77
2023/03/14 14:16:52;;;;;;;;;0.00;0.00;;;;;;;;5005920;28;10796;-82
2023/03/14 14:19:24;;;;;;;;;1.00;0.00;;;;;;;;5017461;28;10894;-81
2023/03/14 14:21:52;;;;;;;;;1.00;0.00;;;;;;;;5020570;28;10832;-78
2023/03/14 14:24:21;;;;;;;;;0.00;0.00;;;;;;;;5030186;28;10692;-79
2023/03/14 14:26:56;;;;;;;;;0.00;0.00;;;;;;;;5019799;28;10621;-85
2023/03/14 14:29:29;;;;;;;;;0.00;0.00;;;;;;;;5018690;28;10523;-80
2023/03/14 14:32:12;;;;;;;;;0.75;0.75;;;;;;;;5006936;28;10377;-78
2023/03/14 14:34:48;;;;;;;;;0.00;0.00;;;;;;;;5015679;28;10477;-80
2023/03/14 14:37:22;;;;;;;;;1.00;1.00;;;;;;;;5021008;28;10386;-79
2023/03/14 14:39:49;;;;;;;;;0.00;0.00;;;;;;;;5020113;28;11188;-78
2023/03/14 14:42:22;;;;;;;;;0.00;0.00;;;;;;;;5018062;28;10344;-76
2023/03/14 14:44:53;;;;;;;;;0.00;0.00;;;;;;;;4997920;28;10239;-81
2023/03/14 14:47:24;;;;;;;;;0.00;0.00;;;;;;;;5017452;28;10160;-80
2023/03/14 14:49:54;;;;;;;;;0.00;0.00;;;;;;;;5019335;28;10123;-80
2023/03/14 14:52:23;;;;;;;;;0.50;0.00;;;;;;;;5013549;28;10120;-80
2023/03/14 14:54:55;;;;;;;;;0.00;0.00;;;;;;;;5015903;28;10172;-79
2023/03/14 14:57:27;;;;;;;;;0.50;0.50;;;;;;;;5013583;28;10222;-76
2023/03/14 14:59:58;;;;;;;;;2.00;0.00;;;;;;;;5016451;28;10228;-81
2023/03/14 15:02:39;;;;;;;;;1.00;1.00;;;;;;;;4997728;28;10237;-82
2023/03/14 15:05:09;;;;;;;;;1.25;0.00;;;;;;;;5016234;28;10479;-80
2023/03/14 15:07:37;;;;;;;;;0.00;0.00;;;;;;;;5014326;28;10682;-81
2023/03/14 15:10:05;;;;;;;;;0.00;0.00;;;;;;;;5003658;28;10663;-79
2023/03/14 15:12:33;;;;;;;;;2.75;1.75;;;;;;;;5003748;28;10845;-80
2023/03/14 15:15:03;;;;;;;;;1.00;1.00;;;;;;;;5016021;28;11768;-81
2023/03/14 15:17:32;;;;;;;;;3.25;3.25;;;;;;;;4998981;28;10974;-77
2023/03/14 15:20:05;;;;;;;;;4.00;4.00;;;;;;;;5006996;28;11226;-79
2023/03/14 15:22:33;;;;;;;;;1.25;1.25;;;;;;;;5010076;28;11416;-76